Hlavní strana
METAR-TAF:

METAR-TAF

Letiště :

Varna, Bulharsko

zeměpisná šířka: 43-12N, zeměpisná délka: 027-55E, výška: 41 m

Aktuální stav počasí

Zpráva byla vytvořena před 14 minutami, v 01:30 UTC
Severovýchodní vítr 16 kt
Teplota 9°C
Vlhkost vzduchu 49%
Tlak 1027 hPa
Viditelnost 10 km a více
Žádná oblačnost pod 1500 m, nevyskytují se cumulonimby.

METAR: LBWN 060130Z 04016KT CAVOK 09/M01 Q1027 NOSIG

Čas: 04:44 (01:44 UTC)

Předpověď počasí

Zpráva byla vytvořena před 2 hodinami a 44 minutami, v 23:00 UTC
Předpověď platná od 06 v 00 UTC do 06 v 24 UTC
Severovýchodní vítr 16 kt
Viditelnost 10 km a více
Žádná oblačnost pod 1500 m, nevyskytují se cumulonimby.
Dočasný
od 06 v 02 UTC do 06 v 14 UTC
Severoseverovýchodní vítr 22 kt s nárazy do 34 kt

TAF: LBWN 052300Z 0600/0624 05016KT CAVOK TEMPO 0602/0614 03022G34KT

Stav a předpovědi počasí z více než 4 000 letišť (zprávy METAR a TAF).

Červené a žluté tečky na mapě představují dostupné meteorologické stanice.

Když kurzor umístíte na tečku, zobrazí se název stanice.

Pak kliknutím zobrazíte stav a předpověď počasí.

Chcete-li změnit mapu, kliknutím na zelené tlačítko se znaménkem +mapu přiblížíte, kliknutím na zelené tlačítko se znaménkem – mapu oddálíte a kliknutím na zelené šipky přejdete na sousední mapy.


METAR-TAF: